Impacts METAR Board
IDs:

KGPT - Gulfport-Biloxi Intl, MS, US

Updated at: 0400 UTC 18 Oct 2018
Potential Impact None Slight Moderate High
Time 17/16Z 17/17Z 17/18Z 17/19Z 17/20Z 17/21Z 17/22Z 17/23Z 18/00Z 18/01Z 18/02Z 18/03Z 18/04Z
Temp75 75 77 77 79 81 79 76 73 72 72 72 70
Dewpt69 68 68 68 69 70 70 69 67 67 66 66 64
Altim30.18 30.18 30.17 30.14 30.14 30.13 30.14 30.15 30.18 30.19 30.21 30.22 30.23
VIS8 9 10 10 10 10 10 10 10 10 10 10 10
CIG8 9 14 14 21 -- -- -- -- 12 12 11 12
CoverOVCOVCOVCBKNOVCFEWSCTSCTCLROVCOVCOVCOVC
FltCatIFRIFRMVFRMVFRMVFRVFRVFRVFRVFRMVFRMVFRMVFRMVFR
WX--------------------------
WDir10103602036020102036020202020
WSpd9 7 10 10 8 8 9 8 8 12 15 8 11
WGst-- -- -- -- -- -- -- -- -- -- 18 -- --
Raw hourly METARs
KGPT 171553Z 01009KT 8SM OVC008 24/21 A3018 RMK AO2 SLP218 T02390206
KGPT 171653Z 01007KT 9SM OVC009 24/20 A3018 RMK AO2 SLP220 T02390200
KGPT 171756Z 36010KT 10SM OVC014 25/20 A3017 RMK AO2 T02500200
KGPT 171853Z 02010KT 10SM BKN014 25/20 A3014 RMK AO2 SLP205 T02500200
KGPT 172000Z 36008KT 10SM OVC021 26/21 A3014 RMK AO2 T02610206
KGPT 172053Z 02008KT 10SM FEW024 27/21 A3013 RMK AO2 SLP203 T02720211 56011
KGPT 172153Z 01009KT 10SM SCT026 26/21 A3014 RMK AO2 SLP205 T02610211
KGPT 172253Z 02008KT 10SM SCT034 24/21 A3015 RMK AO2 SLP210 T02440206
KGPT 172353Z 36008KT 10SM CLR 23/19 A3018 RMK AO2 SLP218 T02280194 10278 20228 53015
KGPT 180053Z 02012KT 10SM OVC012 22/19 A3019 RMK AO2 SLP224 T02220194
KGPT 180153Z 02015G18KT 10SM OVC012 22/19 A3021 RMK AO2 SLP229 T02220189
KGPT 180253Z 02008KT 10SM OVC011 22/19 A3022 RMK AO2 SLP234 T02220189 51015
KGPT 180353Z AUTO 02011KT 10SM OVC012 21/18 A3023 RMK AO2 SLP235 T02110178



Page loaded:  04:37 UTC  |   09:37 PM Pacific  |   10:37 PM Mountain  |   11:37 PM Central  |   12:37 AM Eastern

 

ADVISORIES

FORECASTS

FORECASTS

OBSERVATIONS

USER TOOLS

ABOUT US